Share

Coxs Mills, WV (26342)

Brooklyn Point (KWVGLENV3) Elev 732 ft | 38.94 °N, 80.84 °W | Change Station

Current weather conditions updated 5 minutes ago

Clear
Clear
65.1 °F
Feels Like 65.1 °F
N
0.0
Wind Variable Wind from NNW
Sunrise 6:42 AM
Sunset 8:03 PM
Moon Waning Gibbous

Tomorrow is forecast to be Much Cooler than today.

Pressure 30.21 in
Visibility 10.0 miles
Clouds Clear
Dew Point 43 °F
Humidity 45%
Rainfall 0.00 in
Snow Depth Not available.
UV 0 out of 16
Pollen 9.80 out of 12
Air Quality Not available.
Flu Activity Sporadic
METAR KW22 182355Z AUTO 31003KT 10SM CLR 18/M01 A3021 RMK AO2

More Conditions Fewer Conditions

Pressure 30.21 in
Visibility 10.0 miles
Clouds Clear
Dew Point 43 °F
Humidity 45%
Rainfall 0.00 in
Snow Depth Not available.
UV 0 out of 16
Pollen 9.80 out of 12
Air Quality Not available.
Flu Activity Sporadic
METAR KW22 182355Z AUTO 31003KT 10SM CLR 18/M01 A3021 RMK AO2

More Conditions Fewer Conditions

10-Day Weather Forecast

Almanac

Astronomy

Apr. 18, 2014 Rise Set
Actual Time 6:42 AM EDT 8:03 PM EDT
Civil Twilight 6:14 AM EDT 8:31 PM EDT
Nautical Twilight 5:41 AM EDT 9:04 PM EDT
Astronomical Twilight 5:06 AM EDT 9:40 PM EDT
Moon 11:46 PM EDT (4/18) 9:04 AM EDT (4/18)
Length of Visible Light 14h 16m
Length of Day
13h 21m
Tomorrow will be 2m 22s longer.
Waning Gibbous, 84% of the Moon is Illuminated
Today
Waning Gibbous
Apr 22
Last Quarter
Apr 29
New
May 6
First Quarter
May 14
Full

Today's Extremes

State Highs State Lows

Community

  • What's for Lunch?
    What's for Lunch?
  • SUNRISE THROUGH THE TREES.
    SUNRISE THROUGH THE TREES.
  • Dog Wood Blossoms
    Dog Wood Blossoms
  • Morning Light
    Morning Light
  • New Day
    New Day

WunderPhotos

Upload Photos

1,702,546 photos uploaded!

WunderBlogs® & News

By Dr. Jeff Masters
Director of Meteorology, Weather Underground
By Kari Strenfel
Meteorologist, Weather Underground
By Christopher C. Burt
Weather Historian, Weather Underground
April 18, 2014
April 18, 2014
April 18, 2014

Nearby

Snow Depth

Station Depth Elevation
No new snow has been reported.

Coastal Water Temperatures

Place Temperature
No Stations Reporting

Earthquake Activity

City Distance Mag. Time & Date
No recent earthquake activity has been reported nearby.
Minimum magnitude displayed is 2.5.

Nearby Weather Stations

Station Location Temp. Dew Point Humidity Wind Precip. Elev Updated Type
Brooklyn Point, Glenville, WV 65.1 °F 43 °F 45% NNW  at  0.0 mph - / hr 732 ft 7:04 PM CDT Normal
W8PY @ Harmony, West Union, WV 61.3 °F 46 °F 57% SSW  at  0.0 mph 0.00 in / hr 852 ft 7:54 PM EDT Normal
Arnoldsburg, WV 64.5 °F 43 °F 46% NNW  at  0.0 mph 0.36 in / hr 729 ft 8:00 PM EDT Normal
Frame Circle, Gassaway, WV 61.6 °F 39 °F 44% WNW  at  1.0 mph 0.00 in / hr 890 ft 8:10 PM EDT Rapid Fire

Show More Stations Show Fewer Stations

What do you think?

We're not finished. Please let us know what you like, what you don't like, and what you are still missing.